Time;durP1;ratioP1;P1;durP2;ratioP2;P2;SDS_P1;SDS_P2;PMS_P1;PMS_P2;Temp;Humidity;BMP_temperature;BMP_pressure;BME280_temperature;BME280_humidity;BME280_pressure;Samples;Min_cycle;Max_cycle;Signal;HPM_P1;HPM_P2
2021/12/02 00:00:47;;;;;;;9.68;6.10;;;;;;;2.90;52.64;93411.41;4983822;28;20487;-89
2021/12/02 00:03:12;;;;;;;12.13;6.35;;;;;;;2.92;52.70;93417.19;4980374;28;20084;-86
2021/12/02 00:05:38;;;;;;;11.60;6.43;;;;;;;2.90;53.25;93425.34;4969298;28;20446;-85
2021/12/02 00:08:04;;;;;;;8.73;5.60;;;;;;;1.72;52.95;93217.53;4968318;28;20046;-86
2021/12/02 00:10:31;;;;;;;13.15;5.68;;;;;;;2.23;53.04;93289.59;4979148;28;20039;-86
2021/12/02 00:13:00;;;;;;;9.68;5.53;;;;;;;2.90;53.16;93388.56;4963496;28;20043;-86
2021/12/02 00:15:35;;;;;;;12.07;6.10;;;;;;;2.82;52.78;93391.78;4981794;28;20631;-85
2021/12/02 00:24:03;;;;;;;16.88;7.88;;;;;;;3.24;53.05;93430.56;4983814;28;20038;-86
2021/12/02 00:26:31;;;;;;;11.43;6.00;;;;;;;3.22;52.64;93411.69;4985725;28;20323;-87
2021/12/02 00:28:58;;;;;;;13.23;6.78;;;;;;;3.44;52.70;93434.06;4983142;28;20042;-86
2021/12/02 00:31:30;;;;;;;14.27;7.03;;;;;;;3.12;52.77;93374.97;4965454;28;20049;-86
2021/12/02 00:33:58;;;;;;;17.10;8.85;;;;;;;2.53;51.84;93278.84;4960768;28;20301;-86
2021/12/02 00:36:27;;;;;;;11.70;8.13;;;;;;;3.23;52.34;93402.72;4959400;28;20054;-86
2021/12/02 00:38:53;;;;;;;17.63;9.15;;;;;;;2.93;52.99;93384.63;4967559;28;20169;-85
2021/12/02 00:41:25;;;;;;;9.13;6.80;;;;;;;3.21;53.17;93436.38;4960670;28;20039;-86
2021/12/02 00:43:52;;;;;;;10.20;5.72;;;;;;;3.26;53.24;93428.47;4961256;28;20037;-86
2021/12/02 00:46:33;;;;;;;9.02;5.57;;;;;;;2.08;52.02;93253.75;4964994;28;20161;-86
2021/12/02 00:49:03;;;;;;;10.55;6.20;;;;;;;3.20;52.62;93439.28;4961005;28;20767;-85
2021/12/02 00:51:30;;;;;;;12.50;5.53;;;;;;;2.69;53.50;93429.19;4962293;28;20619;-86
2021/12/02 00:54:00;;;;;;;9.25;5.78;;;;;;;1.76;54.79;93308.47;4978406;28;20505;-86
2021/12/02 00:56:26;;;;;;;8.43;5.47;;;;;;;2.53;53.47;93370.75;4962789;28;20049;-85
2021/12/02 00:58:52;;;;;;;9.88;5.88;;;;;;;2.37;53.18;93364.00;4975385;28;20046;-85
2021/12/02 01:01:21;;;;;;;9.50;6.38;;;;;;;2.64;54.13;93426.59;4962248;28;20049;-85
2021/12/02 01:03:56;;;;;;;9.50;6.05;;;;;;;2.52;53.17;93405.13;4974841;28;20045;-86
2021/12/02 01:06:21;;;;;;;10.07;5.25;;;;;;;2.18;54.24;93389.31;4967784;28;20039;-86
2021/12/02 01:08:49;;;;;;;8.77;5.40;;;;;;;1.70;54.12;93283.34;4963599;28;20539;-86
2021/12/02 01:11:17;;;;;;;8.05;4.57;;;;;;;0.78;54.06;93154.63;4962492;28;20452;-85
2021/12/02 01:13:43;;;;;;;5.85;4.75;;;;;;;2.12;53.64;93326.66;4959943;28;20039;-85
2021/12/02 01:16:08;;;;;;;6.03;4.40;;;;;;;1.30;54.00;93234.53;4957308;28;20046;-86
2021/12/02 01:18:34;;;;;;;8.18;6.15;;;;;;;0.44;54.71;93124.94;4958630;28;20054;-86
2021/12/02 01:21:02;;;;;;;6.75;4.35;;;;;;;1.54;55.05;93287.88;4963563;28;20396;-86
2021/12/02 01:23:30;;;;;;;8.40;3.92;;;;;;;0.54;55.13;93124.09;4958309;28;20031;-85
2021/12/02 01:26:00;;;;;;;6.18;3.35;;;;;;;1.75;55.66;93329.72;4954587;28;20043;-86
2021/12/02 01:28:26;;;;;;;6.32;4.07;;;;;;;0.85;54.42;93151.72;4950209;28;20042;-86
2021/12/02 01:30:53;;;;;;;7.88;3.63;;;;;;;2.64;53.99;93441.56;4963034;28;20070;-86
2021/12/02 01:33:20;;;;;;;10.45;5.32;;;;;;;2.36;54.30;93404.44;4982437;28;21056;-86
2021/12/02 01:35:54;;;;;;;6.70;4.35;;;;;;;2.13;55.08;93447.06;4968094;28;20062;-87
2021/12/02 01:38:22;;;;;;;11.45;6.10;;;;;;;1.62;57.27;93414.94;4967191;28;20065;-86
2021/12/02 01:40:48;;;;;;;11.77;6.60;;;;;;;0.58;57.08;93250.75;4980764;28;20834;-86
2021/12/02 01:43:16;;;;;;;17.92;7.95;;;;;;;1.38;57.04;93344.00;4966737;28;20045;-86
2021/12/02 01:45:42;;;;;;;19.08;8.50;;;;;;;1.75;55.95;93353.31;4980912;28;20104;-87
2021/12/02 01:48:16;;;;;;;11.90;7.43;;;;;;;1.78;57.65;93439.28;4967393;28;20165;-87
2021/12/02 01:50:43;;;;;;;9.27;6.47;;;;;;;1.85;58.47;93450.28;4975714;28;20021;-86
2021/12/02 01:53:17;;;;;;;12.52;6.32;;;;;;;2.39;56.74;93440.66;4975334;28;20046;-85
2021/12/02 01:55:53;;;;;;;13.80;6.60;;;;;;;2.47;56.06;93432.19;4979591;28;21161;-85
2021/12/02 01:58:20;;;;;;;10.82;6.50;;;;;;;2.06;55.23;93323.25;4979972;28;20040;-86
2021/12/02 02:00:46;;;;;;;15.40;7.90;;;;;;;2.65;54.84;93401.09;4983204;28;20495;-85
2021/12/02 02:03:14;;;;;;;11.68;6.57;;;;;;;2.46;54.90;93370.25;4980090;28;20034;-87
2021/12/02 02:05:41;;;;;;;15.60;7.13;;;;;;;2.14;54.14;93300.94;4978090;28;20022;-86
2021/12/02 02:08:10;;;;;;;10.52;7.13;;;;;;;2.30;54.25;93320.78;4962325;28;20038;-86
2021/12/02 02:10:39;;;;;;;12.38;7.93;;;;;;;2.73;54.04;93382.94;4979007;28;20782;-86
2021/12/02 02:13:09;;;;;;;12.40;8.00;;;;;;;0.80;54.03;93071.38;4979905;28;20130;-86
2021/12/02 02:15:40;;;;;;;8.38;5.60;;;;;;;2.93;54.02;93371.47;4985791;28;20043;-86
2021/12/02 02:18:14;;;;;;;11.55;6.55;;;;;;;2.39;55.20;93376.88;4977972;28;20550;-86
2021/12/02 02:23:29;;;;;;;17.92;9.07;;;;;;;1.21;56.62;93288.53;4984207;28;20077;-87
2021/12/02 02:25:55;;;;;;;22.60;8.63;;;;;;;2.27;55.26;93394.78;4963940;28;20026;-86
2021/12/02 02:28:21;;;;;;;14.85;8.20;;;;;;;2.33;55.63;93393.69;4981342;28;20046;-86
2021/12/02 02:30:47;;;;;;;14.18;8.13;;;;;;;2.21;55.10;93365.16;4980761;28;20047;-87
2021/12/02 02:33:13;;;;;;;13.48;7.28;;;;;;;2.10;54.16;93316.44;4976521;28;20045;-86
2021/12/02 02:35:41;;;;;;;10.25;6.32;;;;;;;2.28;54.93;93385.84;4966860;28;20034;-86
2021/12/02 02:38:06;;;;;;;10.65;7.25;;;;;;;1.64;54.96;93282.56;4961866;28;20055;-86
2021/12/02 02:40:33;;;;;;;14.93;6.93;;;;;;;1.22;55.66;93248.19;4978228;28;20496;-85
2021/12/02 02:43:07;;;;;;;8.35;5.10;;;;;;;2.18;55.55;93412.94;4977059;28;20038;-87
2021/12/02 02:45:33;;;;;;;26.30;10.93;;;;;;;1.36;56.91;93395.91;4983787;28;20470;-85
2021/12/02 02:47:58;;;;;;;18.92;8.00;;;;;;;1.34;56.89;93358.69;4980455;28;20022;-86
2021/12/02 02:50:24;;;;;;;14.15;8.68;;;;;;;1.04;57.98;93353.50;4980763;28;20549;-84
2021/12/02 02:53:05;;;;;;;11.50;7.00;;;;;;;-0.54;59.18;93174.16;4984306;28;20168;-83
2021/12/02 02:55:32;;;;;;;10.05;6.30;;;;;;;-0.46;60.41;93219.88;4963376;28;20496;-86
2021/12/02 02:58:08;;;;;;;13.68;7.68;;;;;;;0.47;61.20;93377.38;4961285;28;20566;-86
2021/12/02 03:00:38;;;;;;;14.05;6.82;;;;;;;0.73;61.19;93356.19;4976827;28;20061;-86
2021/12/02 03:03:23;;;;;;;11.50;6.32;;;;;;;-0.38;61.11;93183.56;4975766;28;20117;-86
2021/12/02 03:06:20;;;;;;;16.60;7.45;;;;;;;0.37;59.69;93210.72;4981165;28;20025;-87
2021/12/02 03:08:56;;;;;;;14.23;8.00;;;;;;;-0.39;63.60;93327.53;4988985;28;20161;-86
2021/12/02 03:11:23;;;;;;;17.25;8.13;;;;;;;-0.16;62.95;93340.13;4974579;28;20457;-86
2021/12/02 03:13:51;;;;;;;12.35;8.30;;;;;;;-0.52;62.24;93225.09;4979232;28;20515;-86
2021/12/02 03:19:03;;;;;;;14.68;8.38;;;;;;;0.83;59.18;93358.00;4979682;28;20137;-86
2021/12/02 03:21:29;;;;;;;13.75;8.18;;;;;;;1.26;59.17;93398.53;4980312;28;20039;-87
2021/12/02 03:23:58;;;;;;;15.98;8.48;;;;;;;0.66;58.00;93271.91;4975427;28;20475;-88
2021/12/02 03:26:24;;;;;;;12.48;8.48;;;;;;;1.36;57.62;93369.69;4985794;28;20121;-85
2021/12/02 03:28:55;;;;;;;11.68;7.05;;;;;;;1.32;57.32;93331.22;4958103;28;20085;-87
2021/12/02 03:31:22;;;;;;;12.82;7.05;;;;;;;1.75;57.01;93379.53;4963157;28;20564;-87
2021/12/02 03:33:48;;;;;;;9.38;5.53;;;;;;;1.70;56.53;93348.88;4979549;28;20237;-87
2021/12/02 03:36:15;;;;;;;16.00;7.00;;;;;;;1.94;56.57;93375.28;4987795;28;20134;-87
2021/12/02 03:38:41;;;;;;;14.07;8.05;;;;;;;1.91;57.13;93386.31;4953819;28;20022;-87
2021/12/02 03:41:06;;;;;;;11.73;6.57;;;;;;;1.52;57.39;93321.41;4966889;28;20522;-87
2021/12/02 03:43:40;;;;;;;10.75;6.63;;;;;;;2.06;57.09;93373.09;4984025;28;20038;-87
2021/12/02 03:46:08;;;;;;;11.25;6.43;;;;;;;1.51;56.20;93267.44;4961078;28;20038;-87
2021/12/02 03:48:36;;;;;;;9.75;5.90;;;;;;;0.98;57.74;93236.75;4957848;28;20046;-88
2021/12/02 03:51:03;;;;;;;11.85;6.82;;;;;;;1.83;56.80;93316.03;4973751;28;20038;-85
2021/12/02 03:53:29;;;;;;;9.52;5.38;;;;;;;1.64;56.99;93293.06;4982299;28;20021;-87
2021/12/02 03:55:54;;;;;;;12.25;6.18;;;;;;;2.13;56.76;93347.38;4966131;28;20480;-85
2021/12/02 03:58:19;;;;;;;11.48;6.55;;;;;;;1.05;56.40;93192.72;4964571;28;20142;-87
2021/12/02 04:00:45;;;;;;;12.23;7.10;;;;;;;-0.01;61.70;93294.94;4984158;28;20039;-87
2021/12/02 04:03:10;;;;;;;14.48;6.60;;;;;;;0.58;60.66;93256.75;4988900;28;20022;-87
2021/12/02 04:05:36;;;;;;;23.77;12.52;;;;;;;-0.11;61.36;93261.75;4986420;28;20021;-86
2021/12/02 04:08:01;;;;;;;14.25;7.97;;;;;;;0.28;59.50;93238.47;4987004;28;20061;-87
2021/12/02 04:10:27;;;;;;;11.88;8.40;;;;;;;0.28;59.61;93264.63;4983439;28;20476;-87
2021/12/02 04:15:31;;;;;;;;;;;;;;;1.49;58.03;93384.06;4987078;28;20039;-86
2021/12/02 04:17:56;;;;;;;9.93;6.68;;;;;;;0.35;58.70;93223.28;4965657;28;19952;-87
2021/12/02 04:20:23;;;;;;;13.02;7.30;;;;;;;1.01;59.15;93320.00;4978874;28;20471;-87
2021/12/02 04:22:50;;;;;;;12.07;7.35;;;;;;;1.17;59.13;93322.34;4981815;28;20427;-88
2021/12/02 04:25:17;;;;;;;12.23;6.65;;;;;;;1.67;58.99;93365.91;4979896;28;20041;-87
2021/12/02 04:27:43;;;;;;;15.57;7.05;;;;;;;1.96;58.27;93373.19;4982685;28;20045;-87
2021/12/02 04:30:13;;;;;;;10.55;6.35;;;;;;;2.11;57.64;93375.69;4980893;28;20572;-87
2021/12/02 04:32:39;;;;;;;12.95;6.95;;;;;;;1.93;56.84;93334.38;4981119;28;20431;-87
2021/12/02 04:35:05;;;;;;;9.43;6.60;;;;;;;2.22;56.54;93356.22;4954619;28;20034;-87
2021/12/02 04:37:31;;;;;;;15.55;7.55;;;;;;;2.30;56.05;93342.56;4987612;28;20042;-88
2021/12/02 04:39:57;;;;;;;11.20;5.75;;;;;;;0.71;55.27;93064.34;4966065;28;20301;-86
2021/12/02 04:42:23;;;;;;;9.10;6.45;;;;;;;1.28;54.26;93163.28;4961930;28;20042;-87
2021/12/02 04:44:49;;;;;;;12.75;5.65;;;;;;;0.99;56.09;93227.84;4969231;28;20084;-87
2021/12/02 04:47:14;;;;;;;9.10;6.43;;;;;;;2.06;55.50;93342.41;4961081;28;20126;-86
2021/12/02 04:49:41;;;;;;;9.27;6.65;;;;;;;1.72;57.00;93357.25;4985810;28;20034;-87
2021/12/02 04:52:07;;;;;;;13.48;6.28;;;;;;;1.01;56.58;93230.97;4963246;28;20045;-87
2021/12/02 04:54:33;;;;;;;11.75;6.65;;;;;;;1.67;57.58;93355.44;4987557;28;20436;-87
2021/12/02 04:56:59;;;;;;;12.82;5.68;;;;;;;1.57;57.79;93352.84;4964401;28;20551;-88
2021/12/02 04:59:24;;;;;;;11.57;6.05;;;;;;;1.12;59.78;93347.75;4979293;28;20035;-86
2021/12/02 05:01:50;;;;;;;12.68;6.22;;;;;;;0.33;58.97;93168.63;4980812;28;20042;-87
2021/12/02 05:04:15;;;;;;;8.20;5.90;;;;;;;1.56;58.38;93327.72;4982249;28;20129;-88
2021/12/02 05:06:41;;;;;;;10.98;5.95;;;;;;;1.58;57.54;93278.41;4979305;28;20065;-87
2021/12/02 05:09:06;;;;;;;9.13;6.20;;;;;;;1.71;56.61;93286.75;4980517;28;20053;-87
2021/12/02 05:11:33;;;;;;;13.15;7.15;;;;;;;1.94;56.71;93304.47;4966046;28;20427;-87
2021/12/02 05:13:59;;;;;;;12.82;5.55;;;;;;;2.11;56.61;93325.09;4982497;28;20033;-87
2021/12/02 05:16:24;;;;;;;11.13;6.38;;;;;;;0.99;55.73;93123.09;4984199;28;20462;-87
2021/12/02 05:18:50;;;;;;;13.20;6.82;;;;;;;1.59;55.94;93205.81;4975876;28;21019;-88
2021/12/02 05:21:16;;;;;;;12.32;7.43;;;;;;;1.91;55.50;93232.34;4986066;28;21031;-87
2021/12/02 05:23:42;;;;;;;10.77;6.55;;;;;;;1.51;55.43;93162.63;4983151;28;20449;-88
2021/12/02 05:26:07;;;;;;;14.48;7.50;;;;;;;2.64;55.43;93320.78;4964055;28;20059;-88
2021/12/02 05:28:33;;;;;;;10.82;6.15;;;;;;;2.08;54.45;93234.59;4958824;28;20050;-87
2021/12/02 05:30:58;;;;;;;11.85;6.18;;;;;;;1.74;56.11;93286.19;4983165;28;20053;-86
2021/12/02 05:33:24;;;;;;;11.38;5.72;;;;;;;1.93;56.40;93297.66;4960229;28;20105;-86
2021/12/02 05:35:49;;;;;;;11.93;6.25;;;;;;;2.27;55.96;93311.59;4981581;28;20455;-86
2021/12/02 05:38:15;;;;;;;8.27;5.63;;;;;;;1.65;55.85;93200.28;4964569;28;20038;-88
2021/12/02 05:40:40;;;;;;;15.07;7.13;;;;;;;1.70;56.55;93264.19;4980904;28;20070;-87
2021/12/02 05:43:06;;;;;;;10.48;5.70;;;;;;;1.50;55.83;93168.13;4983544;28;20038;-87
2021/12/02 05:45:32;;;;;;;6.03;4.45;;;;;;;2.64;54.74;93305.03;4981802;28;20603;-87
2021/12/02 05:47:58;;;;;;;9.88;5.90;;;;;;;2.01;54.36;93203.44;4981398;28;20073;-87
2021/12/02 05:50:25;;;;;;;8.05;4.85;;;;;;;2.96;54.68;93331.50;4982965;28;20042;-87
2021/12/02 05:52:50;;;;;;;10.98;5.03;;;;;;;1.23;54.25;93061.16;4966476;28;20038;-87
2021/12/02 05:55:19;;;;;;;7.60;4.80;;;;;;;2.98;53.39;93311.03;4980112;28;20054;-87
2021/12/02 05:57:45;;;;;;;12.07;4.75;;;;;;;1.87;54.06;93165.00;4979140;28;20122;-87
2021/12/02 06:00:10;;;;;;;5.90;3.97;;;;;;;1.72;53.50;93118.69;4978992;28;20158;-87
2021/12/02 06:02:36;;;;;;;7.90;4.45;;;;;;;3.03;53.28;93324.09;4978442;28;20629;-86
2021/12/02 06:05:06;;;;;;;8.68;4.80;;;;;;;2.43;54.15;93315.69;4962169;28;20549;-87
2021/12/02 06:07:32;;;;;;;9.10;5.45;;;;;;;1.56;54.13;93139.00;4980392;28;20443;-88
2021/12/02 06:09:57;;;;;;;99.90;31.30;;;;;;;2.08;54.00;93273.94;4959347;28;20100;-86
2021/12/02 06:12:23;;;;;;;23.45;12.98;;;;;;;2.47;53.30;93282.56;4962876;28;20478;-88
2021/12/02 06:14:49;;;;;;;22.58;12.70;;;;;;;1.56;56.58;93305.97;4985861;28;20103;-87
2021/12/02 06:17:14;;;;;;;13.23;8.65;;;;;;;1.21;54.85;93174.06;4979285;28;20058;-87
2021/12/02 06:19:40;;;;;;;13.70;9.80;;;;;;;2.04;55.74;93343.75;4962726;28;20512;-87
2021/12/02 06:22:08;;;;;;;15.05;10.32;;;;;;;2.10;55.77;93337.44;4981371;28;20576;-87
2021/12/02 06:24:43;;;;;;;13.90;9.50;;;;;;;1.94;56.76;93330.69;4964598;28;20038;-88
2021/12/02 06:27:09;;;;;;;14.80;8.43;;;;;;;2.15;55.95;93345.28;4962983;28;20026;-87
2021/12/02 06:29:37;;;;;;;11.00;8.10;;;;;;;-0.43;57.38;93024.22;4983670;28;20033;-87
2021/12/02 06:32:04;;;;;;;12.43;8.50;;;;;;;1.78;57.11;93302.94;4976072;28;20534;-86
2021/12/02 06:34:30;;;;;;;17.77;9.25;;;;;;;2.00;56.84;93324.38;4964088;28;20065;-86
2021/12/02 06:36:55;;;;;;;15.73;9.32;;;;;;;1.56;56.49;93262.19;4962460;28;20049;-86
2021/12/02 06:39:21;;;;;;;17.45;8.95;;;;;;;2.03;56.91;93323.81;4981002;28;20565;-86
2021/12/02 06:41:46;;;;;;;16.50;8.40;;;;;;;2.35;56.42;93333.88;4961063;28;20116;-85
2021/12/02 06:44:13;;;;;;;12.40;7.80;;;;;;;1.71;55.55;93205.47;4986357;28;20036;-88
2021/12/02 06:46:38;;;;;;;14.80;8.48;;;;;;;2.68;55.36;93367.22;4957803;28;20669;-87
2021/12/02 06:49:04;;;;;;;12.55;7.28;;;;;;;2.73;55.44;93350.63;4985345;28;20129;-87
2021/12/02 06:51:29;;;;;;;15.45;7.93;;;;;;;2.81;55.01;93336.91;4966326;28;20511;-87
2021/12/02 06:53:55;;;;;;;17.05;9.48;;;;;;;2.20;54.79;93202.78;4963089;28;20419;-87
2021/12/02 06:56:20;;;;;;;13.20;9.45;;;;;;;1.99;54.26;93157.56;4957615;28;20129;-87
2021/12/02 06:58:46;;;;;;;18.27;10.55;;;;;;;1.26;55.07;93105.16;4980021;28;20060;-87
2021/12/02 07:01:11;;;;;;;14.48;8.57;;;;;;;2.87;54.54;93293.78;4973606;28;20483;-87
2021/12/02 07:03:37;;;;;;;18.75;9.82;;;;;;;1.55;53.91;93061.44;4980844;28;20042;-87
2021/12/02 07:06:02;;;;;;;23.95;11.00;;;;;;;3.06;54.14;93328.78;4979526;28;20022;-87
2021/12/02 07:08:29;;;;;;;18.65;9.23;;;;;;;2.19;55.09;93224.81;4980784;28;20026;-87
2021/12/02 07:10:55;;;;;;;15.32;8.90;;;;;;;3.21;54.10;93331.28;4977387;28;20092;-87
2021/12/02 07:13:21;;;;;;;18.90;11.80;;;;;;;2.65;55.51;93306.56;4979337;28;20034;-87
2021/12/02 07:15:51;;;;;;;17.80;10.80;;;;;;;2.54;54.23;93219.28;4966276;28;20404;-88
2021/12/02 07:18:17;;;;;;;18.15;10.70;;;;;;;2.81;53.95;93239.72;4977300;28;20106;-87
2021/12/02 07:20:46;;;;;;;21.95;11.32;;;;;;;2.91;53.91;93248.28;4983596;28;20065;-87
2021/12/02 07:23:12;;;;;;;20.05;10.95;;;;;;;3.55;53.82;93328.53;4962790;28;20065;-87
2021/12/02 07:25:40;;;;;;;15.55;9.77;;;;;;;3.57;53.66;93317.75;4978225;28;20126;-86
2021/12/02 07:28:10;;;;;;;25.85;14.90;;;;;;;2.63;55.93;93337.59;4980427;28;20050;-87
2021/12/02 07:30:35;;;;;;;35.10;17.90;;;;;;;2.78;56.56;93313.81;4974300;28;20046;-88
2021/12/02 07:33:03;;;;;;;40.67;20.50;;;;;;;2.17;57.81;93332.66;4960507;28;20022;-87
2021/12/02 07:35:29;;;;;;;50.20;23.00;;;;;;;1.49;57.68;93149.00;4979242;28;20032;-87
2021/12/02 07:37:58;;;;;;;54.22;25.55;;;;;;;-0.36;58.66;92977.69;4972597;28;20034;-87
2021/12/02 07:40:26;;;;;;;66.38;31.73;;;;;;;1.48;59.87;93238.34;4977562;28;20593;-85
2021/12/02 07:42:53;;;;;;;42.08;23.13;;;;;;;2.26;59.19;93320.53;4958874;28;20200;-88
2021/12/02 07:45:21;;;;;;;43.97;22.20;;;;;;;1.98;60.09;93329.09;4974939;28;20611;-87
2021/12/02 07:47:48;;;;;;;44.90;22.85;;;;;;;2.50;58.71;93320.59;4964442;28;20449;-87
2021/12/02 07:50:16;;;;;;;41.85;22.70;;;;;;;2.30;59.43;93334.69;4978779;28;20503;-87
2021/12/02 07:53:04;;;;;;;48.22;25.08;;;;;;;1.61;60.38;93298.06;4978363;28;20658;-87
2021/12/02 07:55:30;;;;;;;45.90;23.52;;;;;;;1.42;61.49;93242.88;4980538;28;20967;-87
2021/12/02 07:57:56;;;;;;;40.65;21.83;;;;;;;1.63;62.01;93346.53;4975278;28;20539;-86
2021/12/02 08:00:26;;;;;;;36.38;20.23;;;;;;;0.96;62.64;93251.94;4961548;28;20038;-87
2021/12/02 08:02:54;;;;;;;31.38;17.70;;;;;;;1.46;63.48;93343.47;4978232;28;20080;-84
2021/12/02 08:05:24;;;;;;;36.58;18.48;;;;;;;1.71;62.11;93294.63;4949163;28;20923;-87
2021/12/02 08:07:51;;;;;;;22.88;14.80;;;;;;;1.94;62.31;93344.59;4955354;28;20046;-86
2021/12/02 08:10:17;;;;;;;30.13;16.23;;;;;;;2.00;62.70;93347.97;4956582;28;20581;-86
2021/12/02 08:12:48;;;;;;;25.15;16.08;;;;;;;1.52;61.85;93234.94;4971031;28;20045;-86
2021/12/02 08:15:26;;;;;;;21.67;15.35;;;;;;;2.38;60.74;93344.59;4960646;28;20470;-86
2021/12/02 08:17:53;;;;;;;29.58;14.60;;;;;;;2.12;61.19;93337.13;4982474;28;20046;-86
2021/12/02 08:20:20;;;;;;;24.52;11.57;;;;;;;2.00;61.07;93279.78;4983920;28;21376;-86
2021/12/02 08:22:46;;;;;;;17.20;10.02;;;;;;;1.26;59.65;93133.97;4976646;28;20565;-85
2021/12/02 08:25:12;;;;;;;15.43;9.00;;;;;;;0.07;59.71;93005.00;4974102;28;20034;-86
2021/12/02 08:27:38;;;;;;;13.48;8.43;;;;;;;2.36;59.68;93325.69;4981966;28;20477;-86
2021/12/02 08:30:06;;;;;;;15.05;9.60;;;;;;;1.31;59.13;93152.28;4978799;28;20045;-86
2021/12/02 08:32:32;;;;;;;12.80;7.55;;;;;;;2.11;59.44;93338.22;4984640;28;20057;-86
2021/12/02 08:35:00;;;;;;;13.85;8.18;;;;;;;2.19;60.08;93327.94;4980828;28;20042;-85
2021/12/02 08:37:28;;;;;;;17.80;7.85;;;;;;;2.62;58.94;93312.38;4974911;28;20045;-85
2021/12/02 08:39:57;;;;;;;15.82;8.70;;;;;;;2.44;58.73;93348.75;4965451;28;20061;-86
2021/12/02 08:42:24;;;;;;;14.40;8.68;;;;;;;2.15;58.58;93223.81;4982251;28;20045;-86
2021/12/02 08:44:50;;;;;;;13.25;7.78;;;;;;;2.53;56.98;93310.34;4985344;28;20026;-86
2021/12/02 08:47:18;;;;;;;8.95;6.57;;;;;;;0.43;58.05;93017.94;4965821;28;20069;-86
2021/12/02 08:49:43;;;;;;;11.00;6.40;;;;;;;2.49;57.32;93269.97;4984210;28;20761;-87
2021/12/02 08:52:08;;;;;;;11.38;6.75;;;;;;;2.11;57.63;93243.78;4981321;28;20065;-86
2021/12/02 08:54:34;;;;;;;18.20;6.30;;;;;;;1.73;58.13;93219.09;4967730;28;20034;-85
2021/12/02 08:56:59;;;;;;;13.40;7.70;;;;;;;0.03;58.59;92990.13;4962578;28;20062;-84
2021/12/02 08:59:25;;;;;;;12.90;7.05;;;;;;;1.38;58.81;93184.19;4985244;28;20399;-84
2021/12/02 09:01:50;;;;;;;9.63;6.55;;;;;;;1.23;58.29;93114.31;4978246;28;20042;-85
2021/12/02 09:04:16;;;;;;;11.75;6.50;;;;;;;0.88;58.01;93017.69;4983979;28;20093;-86
2021/12/02 09:06:41;;;;;;;16.80;7.78;;;;;;;2.46;57.36;93278.38;4955024;28;20225;-86
2021/12/02 09:09:06;;;;;;;15.82;6.63;;;;;;;1.59;57.47;93148.16;4982907;28;20026;-85
2021/12/02 09:11:33;;;;;;;9.73;7.07;;;;;;;2.91;57.07;93292.16;4956977;28;20799;-85
2021/12/02 09:14:01;;;;;;;11.30;6.53;;;;;;;2.42;57.46;93295.75;4959748;28;20570;-84
2021/12/02 09:16:29;;;;;;;10.32;7.15;;;;;;;2.27;57.88;93280.09;4968604;28;20091;-85
2021/12/02 09:18:56;;;;;;;10.68;5.38;;;;;;;1.75;58.46;93224.84;4979010;28;20034;-85
2021/12/02 09:21:23;;;;;;;19.55;9.52;;;;;;;2.26;58.45;93293.50;4983839;28;20380;-85
2021/12/02 09:23:51;;;;;;;18.00;9.10;;;;;;;1.87;58.79;93270.69;4964327;28;21147;-84
2021/12/02 09:26:17;;;;;;;11.07;8.10;;;;;;;2.12;59.34;93282.84;4983870;28;20034;-85
2021/12/02 09:28:42;;;;;;;10.95;6.45;;;;;;;1.76;58.74;93194.97;4982364;28;20034;-85
2021/12/02 09:31:08;;;;;;;14.93;6.78;;;;;;;2.20;58.88;93253.41;4984410;28;20590;-84
2021/12/02 09:33:34;;;;;;;6.88;5.10;;;;;;;2.37;58.92;93277.41;4964887;28;20190;-85
2021/12/02 09:36:00;;;;;;;6.85;6.05;;;;;;;2.20;58.35;93274.41;4969540;28;20052;-86
2021/12/02 09:38:25;;;;;;;11.63;6.93;;;;;;;1.90;58.18;93193.31;4980550;28;20019;-85
2021/12/02 09:40:51;;;;;;;7.20;5.82;;;;;;;3.03;57.61;93282.06;4978546;28;20627;-85
2021/12/02 09:43:16;;;;;;;7.82;6.15;;;;;;;2.69;57.42;93271.63;4980977;28;20270;-85
2021/12/02 09:45:43;;;;;;;8.13;5.63;;;;;;;1.78;57.29;93154.28;4980864;28;20506;-84
2021/12/02 09:48:10;;;;;;;12.50;6.00;;;;;;;0.51;57.65;92955.34;4979266;28;20435;-85
2021/12/02 09:50:46;;;;;;;6.78;5.20;;;;;;;2.29;57.85;93225.53;4981553;28;20010;-85
2021/12/02 09:53:16;;;;;;;9.43;5.55;;;;;;;0.99;57.81;93020.97;4980961;28;20572;-85
2021/12/02 09:55:51;;;;;;;10.65;5.82;;;;;;;0.34;57.84;92934.81;4965069;28;20038;-85
2021/12/02 09:58:28;;;;;;;;;;;;;;;2.75;57.41;93261.84;4961939;28;21076;-85
2021/12/02 10:01:13;;;;;;;10.48;5.45;;;;;;;2.44;57.35;93249.03;4976460;28;19953;-84
2021/12/02 10:03:41;;;;;;;10.93;4.43;;;;;;;1.60;56.90;93100.72;4968158;28;20321;-85
2021/12/02 10:06:19;;;;;;;6.97;5.53;;;;;;;2.91;56.43;93247.50;4980023;28;20018;-85
2021/12/02 10:08:56;;;;;;;7.65;5.13;;;;;;;2.86;56.29;93244.94;4979088;28;20030;-85
2021/12/02 10:14:22;;;;;;;9.70;5.10;;;;;;;3.35;55.55;93236.75;4980506;28;20062;-86
2021/12/02 10:16:50;;;;;;;10.30;5.70;;;;;;;2.73;55.35;93198.34;4979406;28;20039;-85
2021/12/02 10:19:28;;;;;;;14.23;5.82;;;;;;;2.75;55.68;93175.19;4977884;28;20034;-85
2021/12/02 10:24:28;;;;;;;9.93;5.22;;;;;;;2.65;55.03;93134.06;4978538;28;20129;-86
2021/12/02 10:27:00;;;;;;;14.15;7.47;;;;;;;3.21;54.90;93204.34;4964990;28;20501;-86
2021/12/02 10:29:32;;;;;;;10.88;5.20;;;;;;;3.23;54.76;93203.00;4982240;28;20140;-85
2021/12/02 10:32:08;;;;;;;9.30;5.63;;;;;;;3.19;54.48;93211.72;4982006;28;20042;-85
2021/12/02 10:34:48;;;;;;;6.57;4.90;;;;;;;3.27;54.14;93151.47;4972102;28;20385;-85
2021/12/02 10:37:13;;;;;;;12.73;6.32;;;;;;;3.26;53.56;93128.88;4973248;28;20049;-85
2021/12/02 10:39:39;;;;;;;11.07;5.88;;;;;;;2.78;54.05;93103.75;4980966;28;20410;-86
2021/12/02 10:42:08;;;;;;;11.82;5.43;;;;;;;2.96;53.93;93108.25;4977981;28;20510;-85
2021/12/02 10:44:36;;;;;;;13.20;5.47;;;;;;;3.44;54.06;93173.81;4979574;28;20030;-85
2021/12/02 10:47:07;;;;;;;6.65;5.50;;;;;;;3.61;54.23;93203.06;4979103;28;20522;-85
2021/12/02 10:49:39;;;;;;;10.75;5.90;;;;;;;1.76;54.15;92911.84;4981149;28;20049;-86
2021/12/02 10:52:10;;;;;;;7.65;5.68;;;;;;;3.65;54.23;93169.84;4984064;28;20038;-86
2021/12/02 10:54:38;;;;;;;7.95;5.78;;;;;;;2.03;54.64;92951.38;4976791;28;20045;-85
2021/12/02 10:57:17;;;;;;;11.63;6.07;;;;;;;3.54;54.09;93182.34;4964471;28;20034;-85
2021/12/02 10:59:47;;;;;;;8.15;5.38;;;;;;;2.31;53.67;92931.34;4977215;28;20029;-85
2021/12/02 11:02:36;;;;;;;7.90;5.47;;;;;;;3.28;52.55;92968.28;4966541;28;20611;-86
2021/12/02 11:05:11;;;;;;;6.05;4.32;;;;;;;4.07;51.92;93138.16;4967853;28;20387;-86
2021/12/02 11:07:41;;;;;;;9.63;5.57;;;;;;;3.80;51.93;93061.78;4979804;28;20108;-85
2021/12/02 11:10:13;;;;;;;7.32;4.53;;;;;;;4.05;52.18;93118.47;4974407;28;20049;-86
2021/12/02 11:12:45;;;;;;;11.40;5.60;;;;;;;4.00;51.86;93127.22;4974451;28;20554;-86
2021/12/02 11:15:16;;;;;;;7.90;5.15;;;;;;;4.60;51.67;93145.72;4972074;28;20034;-87
2021/12/02 11:17:47;;;;;;;7.05;5.65;;;;;;;4.43;51.19;93148.88;4976122;28;20034;-86
2021/12/02 11:20:23;;;;;;;9.02;5.82;;;;;;;4.05;52.00;93098.22;4974260;28;20514;-86
2021/12/02 11:22:59;;;;;;;9.60;4.82;;;;;;;4.09;52.27;93143.91;4974915;28;20049;-85
2021/12/02 11:25:25;;;;;;;9.70;5.47;;;;;;;3.90;52.16;93064.25;4967226;28;20050;-85
2021/12/02 11:27:52;;;;;;;11.73;5.15;;;;;;;4.19;51.26;93092.97;4966948;28;20039;-86
2021/12/02 11:30:26;;;;;;;7.80;5.28;;;;;;;4.14;51.01;93028.03;4966602;28;20084;-85
2021/12/02 11:33:06;;;;;;;7.28;4.78;;;;;;;4.65;50.70;93079.75;4963115;28;21378;-85
2021/12/02 11:35:37;;;;;;;11.13;5.50;;;;;;;4.93;50.96;93126.09;4960705;28;20412;-84
2021/12/02 11:38:07;;;;;;;9.05;6.63;;;;;;;4.87;50.43;93058.75;4953920;28;20054;-85
2021/12/02 11:40:43;;;;;;;8.75;6.05;;;;;;;5.71;49.41;93126.81;4971422;28;20050;-84
2021/12/02 11:43:11;;;;;;;13.90;5.90;;;;;;;4.78;50.27;93067.66;4950296;28;20137;-83
2021/12/02 11:45:46;;;;;;;11.80;6.25;;;;;;;5.36;49.80;93113.31;4958462;28;20465;-85
2021/12/02 11:48:23;;;;;;;14.93;7.20;;;;;;;4.91;50.10;93088.72;4959047;28;20030;-85
2021/12/02 11:50:52;;;;;;;10.95;7.13;;;;;;;5.08;50.10;93049.34;4979654;28;20036;-85
2021/12/02 11:53:21;;;;;;;13.50;7.68;;;;;;;5.89;49.50;93118.72;4973143;28;20538;-84
2021/12/02 11:55:50;;;;;;;12.57;7.30;;;;;;;4.63;49.78;92995.00;4974355;28;20047;-84
2021/12/02 11:58:17;;;;;;;10.73;6.70;;;;;;;5.45;49.60;93036.91;4965108;28;21045;-84